sensor_id;sensor_type;location;lat;lon;timestamp;P1;durP1;ratioP1;P2;durP2;ratioP2
1682;SDS011;13252;53.596;10.060;2022-09-21T00:00:52;8.83;;;4.60;;
1682;SDS011;13252;53.596;10.060;2022-09-21T00:03:20;10.67;;;5.00;;
1682;SDS011;13252;53.596;10.060;2022-09-21T00:05:48;11.10;;;4.70;;
1682;SDS011;13252;53.596;10.060;2022-09-21T00:08:15;12.00;;;5.20;;
1682;SDS011;13252;53.596;10.060;2022-09-21T00:10:48;9.63;;;4.70;;
1682;SDS011;13252;53.596;10.060;2022-09-21T00:13:17;14.00;;;4.57;;
1682;SDS011;13252;53.596;10.060;2022-09-21T00:15:46;12.13;;;5.00;;
1682;SDS011;13252;53.596;10.060;2022-09-21T00:18:13;8.53;;;4.47;;
1682;SDS011;13252;53.596;10.060;2022-09-21T00:20:41;11.77;;;5.00;;
1682;SDS011;13252;53.596;10.060;2022-09-21T00:23:09;6.90;;;4.37;;
1682;SDS011;13252;53.596;10.060;2022-09-21T00:25:37;11.70;;;4.90;;
1682;SDS011;13252;53.596;10.060;2022-09-21T00:28:04;10.67;;;5.07;;
1682;SDS011;13252;53.596;10.060;2022-09-21T00:30:33;9.33;;;4.13;;
1682;SDS011;13252;53.596;10.060;2022-09-21T00:33:01;8.27;;;4.50;;
1682;SDS011;13252;53.596;10.060;2022-09-21T00:35:28;13.33;;;4.30;;
1682;SDS011;13252;53.596;10.060;2022-09-21T00:37:59;9.30;;;4.10;;
1682;SDS011;13252;53.596;10.060;2022-09-21T00:40:27;10.23;;;5.10;;
1682;SDS011;13252;53.596;10.060;2022-09-21T00:43:09;6.73;;;3.87;;
1682;SDS011;13252;53.596;10.060;2022-09-21T00:45:39;12.07;;;3.97;;
1682;SDS011;13252;53.596;10.060;2022-09-21T00:48:07;8.00;;;4.03;;
1682;SDS011;13252;53.596;10.060;2022-09-21T00:50:35;7.17;;;3.70;;
1682;SDS011;13252;53.596;10.060;2022-09-21T00:53:04;9.13;;;3.83;;
1682;SDS011;13252;53.596;10.060;2022-09-21T00:55:33;7.33;;;3.90;;
1682;SDS011;13252;53.596;10.060;2022-09-21T00:58:05;13.50;;;4.80;;
1682;SDS011;13252;53.596;10.060;2022-09-21T01:00:36;6.27;;;4.43;;
1682;SDS011;13252;53.596;10.060;2022-09-21T01:03:06;8.60;;;4.73;;
1682;SDS011;13252;53.596;10.060;2022-09-21T01:05:35;12.47;;;4.57;;
1682;SDS011;13252;53.596;10.060;2022-09-21T01:08:03;5.73;;;3.77;;
1682;SDS011;13252;53.596;10.060;2022-09-21T01:10:35;8.07;;;4.07;;
1682;SDS011;13252;53.596;10.060;2022-09-21T01:13:12;9.70;;;4.30;;
1682;SDS011;13252;53.596;10.060;2022-09-21T01:15:47;7.53;;;4.23;;
1682;SDS011;13252;53.596;10.060;2022-09-21T01:18:19;9.80;;;4.27;;
1682;SDS011;13252;53.596;10.060;2022-09-21T01:26:42;7.97;;;5.00;;
1682;SDS011;13252;53.596;10.060;2022-09-21T01:29:22;10.90;;;3.90;;
1682;SDS011;13252;53.596;10.060;2022-09-21T01:31:53;10.20;;;4.50;;
1682;SDS011;13252;53.596;10.060;2022-09-21T01:34:27;9.50;;;4.70;;
1682;SDS011;13252;53.596;10.060;2022-09-21T01:36:58;11.33;;;4.53;;
1682;SDS011;13252;53.596;10.060;2022-09-21T01:39:28;11.53;;;5.43;;
1682;SDS011;13252;53.596;10.060;2022-09-21T01:41:57;11.83;;;4.87;;
1682;SDS011;13252;53.596;10.060;2022-09-21T01:44:27;9.43;;;4.97;;
1682;SDS011;13252;53.596;10.060;2022-09-21T01:46:58;7.87;;;4.83;;
1682;SDS011;13252;53.596;10.060;2022-09-21T01:49:28;7.40;;;5.00;;
1682;SDS011;13252;53.596;10.060;2022-09-21T01:51:59;10.23;;;4.50;;
1682;SDS011;13252;53.596;10.060;2022-09-21T01:54:32;8.30;;;4.30;;
1682;SDS011;13252;53.596;10.060;2022-09-21T01:57:04;6.13;;;4.37;;
1682;SDS011;13252;53.596;10.060;2022-09-21T01:59:37;9.10;;;4.57;;
1682;SDS011;13252;53.596;10.060;2022-09-21T02:02:12;11.20;;;4.37;;
1682;SDS011;13252;53.596;10.060;2022-09-21T02:04:42;9.30;;;5.40;;
1682;SDS011;13252;53.596;10.060;2022-09-21T02:07:11;11.20;;;4.93;;
1682;SDS011;13252;53.596;10.060;2022-09-21T02:09:39;10.63;;;4.50;;
1682;SDS011;13252;53.596;10.060;2022-09-21T02:12:07;18.00;;;5.33;;
1682;SDS011;13252;53.596;10.060;2022-09-21T02:14:36;12.30;;;5.20;;
1682;SDS011;13252;53.596;10.060;2022-09-21T02:17:06;10.97;;;5.00;;
1682;SDS011;13252;53.596;10.060;2022-09-21T02:19:43;8.77;;;4.70;;
1682;SDS011;13252;53.596;10.060;2022-09-21T02:22:13;13.33;;;4.37;;
1682;SDS011;13252;53.596;10.060;2022-09-21T02:24:42;12.13;;;4.90;;
1682;SDS011;13252;53.596;10.060;2022-09-21T02:27:15;10.77;;;4.83;;
1682;SDS011;13252;53.596;10.060;2022-09-21T02:29:49;8.83;;;4.67;;
1682;SDS011;13252;53.596;10.060;2022-09-21T02:32:22;8.93;;;4.90;;
1682;SDS011;13252;53.596;10.060;2022-09-21T02:34:55;8.97;;;5.33;;
1682;SDS011;13252;53.596;10.060;2022-09-21T02:37:27;8.37;;;5.10;;
1682;SDS011;13252;53.596;10.060;2022-09-21T02:40:02;11.63;;;4.50;;
1682;SDS011;13252;53.596;10.060;2022-09-21T02:42:36;16.73;;;6.73;;
1682;SDS011;13252;53.596;10.060;2022-09-21T02:45:09;8.73;;;5.00;;
1682;SDS011;13252;53.596;10.060;2022-09-21T02:47:38;7.67;;;4.43;;
1682;SDS011;13252;53.596;10.060;2022-09-21T02:50:11;16.57;;;5.60;;
1682;SDS011;13252;53.596;10.060;2022-09-21T02:52:42;8.83;;;5.27;;
1682;SDS011;13252;53.596;10.060;2022-09-21T02:55:10;8.90;;;5.50;;
1682;SDS011;13252;53.596;10.060;2022-09-21T02:57:39;11.37;;;4.70;;
1682;SDS011;13252;53.596;10.060;2022-09-21T03:00:09;11.13;;;4.60;;
1682;SDS011;13252;53.596;10.060;2022-09-21T03:02:38;11.30;;;5.00;;
1682;SDS011;13252;53.596;10.060;2022-09-21T03:05:07;5.90;;;4.10;;
1682;SDS011;13252;53.596;10.060;2022-09-21T03:07:35;9.43;;;5.40;;
1682;SDS011;13252;53.596;10.060;2022-09-21T03:10:03;13.43;;;5.70;;
1682;SDS011;13252;53.596;10.060;2022-09-21T03:12:33;9.50;;;4.50;;
1682;SDS011;13252;53.596;10.060;2022-09-21T03:15:01;8.33;;;5.10;;
1682;SDS011;13252;53.596;10.060;2022-09-21T03:17:30;6.50;;;4.07;;
1682;SDS011;13252;53.596;10.060;2022-09-21T03:19:57;9.93;;;5.27;;
1682;SDS011;13252;53.596;10.060;2022-09-21T03:22:25;9.20;;;4.40;;
1682;SDS011;13252;53.596;10.060;2022-09-21T03:24:52;9.50;;;4.80;;
1682;SDS011;13252;53.596;10.060;2022-09-21T03:27:22;7.63;;;4.50;;
1682;SDS011;13252;53.596;10.060;2022-09-21T03:29:50;5.73;;;4.20;;
1682;SDS011;13252;53.596;10.060;2022-09-21T03:32:18;9.00;;;4.70;;
1682;SDS011;13252;53.596;10.060;2022-09-21T03:34:47;5.67;;;4.70;;
1682;SDS011;13252;53.596;10.060;2022-09-21T03:37:15;7.60;;;4.90;;
1682;SDS011;13252;53.596;10.060;2022-09-21T03:39:42;9.33;;;5.30;;
1682;SDS011;13252;53.596;10.060;2022-09-21T03:42:11;8.17;;;5.20;;
1682;SDS011;13252;53.596;10.060;2022-09-21T03:44:39;11.00;;;5.27;;
1682;SDS011;13252;53.596;10.060;2022-09-21T03:47:06;12.40;;;6.30;;
1682;SDS011;13252;53.596;10.060;2022-09-21T03:49:34;12.40;;;5.90;;
1682;SDS011;13252;53.596;10.060;2022-09-21T03:52:03;9.20;;;5.37;;
1682;SDS011;13252;53.596;10.060;2022-09-21T03:54:31;10.77;;;6.40;;
1682;SDS011;13252;53.596;10.060;2022-09-21T03:56:58;15.10;;;6.53;;
1682;SDS011;13252;53.596;10.060;2022-09-21T03:59:26;9.07;;;5.80;;
1682;SDS011;13252;53.596;10.060;2022-09-21T04:01:53;12.70;;;7.10;;
1682;SDS011;13252;53.596;10.060;2022-09-21T04:04:20;10.43;;;7.03;;
1682;SDS011;13252;53.596;10.060;2022-09-21T04:06:48;11.07;;;7.43;;
1682;SDS011;13252;53.596;10.060;2022-09-21T04:09:17;12.53;;;6.97;;
1682;SDS011;13252;53.596;10.060;2022-09-21T04:11:45;9.80;;;6.73;;
1682;SDS011;13252;53.596;10.060;2022-09-21T04:14:13;21.67;;;9.20;;
1682;SDS011;13252;53.596;10.060;2022-09-21T04:16:40;17.03;;;7.57;;
1682;SDS011;13252;53.596;10.060;2022-09-21T04:19:08;23.87;;;8.77;;
1682;SDS011;13252;53.596;10.060;2022-09-21T04:21:35;24.47;;;8.97;;
1682;SDS011;13252;53.596;10.060;2022-09-21T04:24:03;16.90;;;7.67;;
1682;SDS011;13252;53.596;10.060;2022-09-21T04:26:33;18.27;;;8.17;;
1682;SDS011;13252;53.596;10.060;2022-09-21T04:29:02;15.00;;;8.80;;
1682;SDS011;13252;53.596;10.060;2022-09-21T04:31:32;12.67;;;7.10;;
1682;SDS011;13252;53.596;10.060;2022-09-21T04:33:59;20.43;;;8.13;;
1682;SDS011;13252;53.596;10.060;2022-09-21T04:36:27;28.93;;;10.17;;
1682;SDS011;13252;53.596;10.060;2022-09-21T04:39:02;14.10;;;8.90;;
1682;SDS011;13252;53.596;10.060;2022-09-21T04:41:30;23.43;;;9.13;;
1682;SDS011;13252;53.596;10.060;2022-09-21T04:43:58;18.83;;;9.33;;
1682;SDS011;13252;53.596;10.060;2022-09-21T04:46:26;17.97;;;9.10;;
1682;SDS011;13252;53.596;10.060;2022-09-21T04:48:54;25.13;;;10.10;;
1682;SDS011;13252;53.596;10.060;2022-09-21T04:51:21;14.53;;;8.23;;
1682;SDS011;13252;53.596;10.060;2022-09-21T04:53:49;15.70;;;9.00;;
1682;SDS011;13252;53.596;10.060;2022-09-21T04:56:16;15.10;;;10.03;;
1682;SDS011;13252;53.596;10.060;2022-09-21T04:58:44;15.73;;;9.10;;
1682;SDS011;13252;53.596;10.060;2022-09-21T05:01:13;10.80;;;8.80;;
1682;SDS011;13252;53.596;10.060;2022-09-21T05:03:41;14.40;;;7.90;;
1682;SDS011;13252;53.596;10.060;2022-09-21T05:06:08;15.30;;;8.57;;
1682;SDS011;13252;53.596;10.060;2022-09-21T05:08:38;12.23;;;8.60;;
1682;SDS011;13252;53.596;10.060;2022-09-21T05:11:24;18.27;;;10.30;;
1682;SDS011;13252;53.596;10.060;2022-09-21T05:13:52;17.17;;;10.17;;
1682;SDS011;13252;53.596;10.060;2022-09-21T05:16:21;24.87;;;10.77;;
1682;SDS011;13252;53.596;10.060;2022-09-21T05:18:51;14.97;;;11.07;;
1682;SDS011;13252;53.596;10.060;2022-09-21T05:21:19;15.30;;;10.30;;
1682;SDS011;13252;53.596;10.060;2022-09-21T05:23:47;22.43;;;11.20;;
1682;SDS011;13252;53.596;10.060;2022-09-21T05:26:15;16.93;;;10.63;;
1682;SDS011;13252;53.596;10.060;2022-09-21T05:28:42;16.57;;;10.67;;
1682;SDS011;13252;53.596;10.060;2022-09-21T05:31:12;15.13;;;10.00;;
1682;SDS011;13252;53.596;10.060;2022-09-21T05:33:54;19.00;;;12.53;;
1682;SDS011;13252;53.596;10.060;2022-09-21T05:36:27;18.00;;;11.60;;
1682;SDS011;13252;53.596;10.060;2022-09-21T05:39:04;17.17;;;11.23;;
1682;SDS011;13252;53.596;10.060;2022-09-21T05:41:33;23.67;;;11.40;;
1682;SDS011;13252;53.596;10.060;2022-09-21T05:44:01;19.23;;;10.67;;
1682;SDS011;13252;53.596;10.060;2022-09-21T05:46:33;13.30;;;10.03;;
1682;SDS011;13252;53.596;10.060;2022-09-21T05:49:05;18.07;;;10.73;;
1682;SDS011;13252;53.596;10.060;2022-09-21T05:51:38;20.73;;;10.53;;
1682;SDS011;13252;53.596;10.060;2022-09-21T05:54:10;20.03;;;10.30;;
1682;SDS011;13252;53.596;10.060;2022-09-21T05:56:45;17.87;;;11.23;;
1682;SDS011;13252;53.596;10.060;2022-09-21T05:59:24;18.60;;;11.70;;
1682;SDS011;13252;53.596;10.060;2022-09-21T06:02:01;21.63;;;11.77;;
1682;SDS011;13252;53.596;10.060;2022-09-21T06:04:35;14.80;;;11.53;;
1682;SDS011;13252;53.596;10.060;2022-09-21T06:07:02;17.43;;;10.43;;
1682;SDS011;13252;53.596;10.060;2022-09-21T06:09:30;16.40;;;11.00;;
1682;SDS011;13252;53.596;10.060;2022-09-21T06:11:58;19.13;;;11.63;;
1682;SDS011;13252;53.596;10.060;2022-09-21T06:14:26;22.43;;;11.77;;
1682;SDS011;13252;53.596;10.060;2022-09-21T06:16:53;20.43;;;11.57;;
1682;SDS011;13252;53.596;10.060;2022-09-21T06:19:22;21.20;;;12.00;;
1682;SDS011;13252;53.596;10.060;2022-09-21T06:21:50;21.20;;;12.50;;
1682;SDS011;13252;53.596;10.060;2022-09-21T06:24:17;16.47;;;12.03;;
1682;SDS011;13252;53.596;10.060;2022-09-21T06:26:45;25.90;;;12.03;;
1682;SDS011;13252;53.596;10.060;2022-09-21T06:29:12;25.37;;;12.07;;
1682;SDS011;13252;53.596;10.060;2022-09-21T06:31:40;18.57;;;12.60;;
1682;SDS011;13252;53.596;10.060;2022-09-21T06:34:07;17.23;;;13.33;;
1682;SDS011;13252;53.596;10.060;2022-09-21T06:36:36;29.13;;;13.43;;
1682;SDS011;13252;53.596;10.060;2022-09-21T06:39:04;17.80;;;12.30;;
1682;SDS011;13252;53.596;10.060;2022-09-21T06:41:31;22.07;;;15.00;;
1682;SDS011;13252;53.596;10.060;2022-09-21T06:43:59;29.10;;;16.50;;
1682;SDS011;13252;53.596;10.060;2022-09-21T06:46:26;18.17;;;15.97;;
1682;SDS011;13252;53.596;10.060;2022-09-21T06:48:54;20.60;;;18.50;;
1682;SDS011;13252;53.596;10.060;2022-09-21T06:51:21;26.00;;;17.97;;
1682;SDS011;13252;53.596;10.060;2022-09-21T06:53:54;32.87;;;20.60;;
1682;SDS011;13252;53.596;10.060;2022-09-21T06:56:22;28.03;;;20.03;;
1682;SDS011;13252;53.596;10.060;2022-09-21T06:58:49;23.90;;;19.63;;
1682;SDS011;13252;53.596;10.060;2022-09-21T07:01:18;26.40;;;20.30;;
1682;SDS011;13252;53.596;10.060;2022-09-21T07:03:47;27.00;;;20.83;;
1682;SDS011;13252;53.596;10.060;2022-09-21T07:06:16;27.63;;;21.27;;
1682;SDS011;13252;53.596;10.060;2022-09-21T07:08:44;25.10;;;21.10;;
1682;SDS011;13252;53.596;10.060;2022-09-21T07:11:33;26.83;;;21.90;;
1682;SDS011;13252;53.596;10.060;2022-09-21T07:14:00;29.70;;;22.13;;
1682;SDS011;13252;53.596;10.060;2022-09-21T07:16:29;33.73;;;22.17;;
1682;SDS011;13252;53.596;10.060;2022-09-21T07:18:56;25.10;;;22.50;;
1682;SDS011;13252;53.596;10.060;2022-09-21T07:21:36;22.90;;;19.07;;
1682;SDS011;13252;53.596;10.060;2022-09-21T07:24:03;25.30;;;20.80;;
1682;SDS011;13252;53.596;10.060;2022-09-21T07:26:38;31.53;;;20.83;;
1682;SDS011;13252;53.596;10.060;2022-09-21T07:29:06;23.47;;;18.00;;
1682;SDS011;13252;53.596;10.060;2022-09-21T07:31:33;25.80;;;18.70;;
1682;SDS011;13252;53.596;10.060;2022-09-21T07:34:01;21.93;;;15.63;;
1682;SDS011;13252;53.596;10.060;2022-09-21T07:36:29;24.70;;;15.50;;
1682;SDS011;13252;53.596;10.060;2022-09-21T07:38:57;18.30;;;14.30;;
1682;SDS011;13252;53.596;10.060;2022-09-21T07:41:24;26.80;;;15.50;;
1682;SDS011;13252;53.596;10.060;2022-09-21T07:43:53;18.43;;;12.60;;
1682;SDS011;13252;53.596;10.060;2022-09-21T07:46:21;13.93;;;10.07;;
1682;SDS011;13252;53.596;10.060;2022-09-21T07:48:48;17.60;;;11.07;;
1682;SDS011;13252;53.596;10.060;2022-09-21T07:51:19;15.20;;;9.07;;
1682;SDS011;13252;53.596;10.060;2022-09-21T07:53:47;13.50;;;9.50;;
1682;SDS011;13252;53.596;10.060;2022-09-21T07:56:15;11.77;;;9.70;;
1682;SDS011;13252;53.596;10.060;2022-09-21T07:58:44;14.70;;;9.20;;
1682;SDS011;13252;53.596;10.060;2022-09-21T08:01:31;11.13;;;8.70;;
1682;SDS011;13252;53.596;10.060;2022-09-21T08:03:59;13.83;;;9.10;;
1682;SDS011;13252;53.596;10.060;2022-09-21T08:06:28;13.33;;;7.10;;
1682;SDS011;13252;53.596;10.060;2022-09-21T08:08:58;8.50;;;6.60;;
1682;SDS011;13252;53.596;10.060;2022-09-21T08:11:26;10.63;;;7.90;;
1682;SDS011;13252;53.596;10.060;2022-09-21T08:13:55;13.83;;;6.70;;
1682;SDS011;13252;53.596;10.060;2022-09-21T08:16:24;8.63;;;6.33;;
1682;SDS011;13252;53.596;10.060;2022-09-21T08:18:53;14.50;;;6.93;;
1682;SDS011;13252;53.596;10.060;2022-09-21T08:21:21;15.43;;;7.43;;
1682;SDS011;13252;53.596;10.060;2022-09-21T08:23:49;9.50;;;6.10;;
1682;SDS011;13252;53.596;10.060;2022-09-21T08:26:17;7.20;;;5.97;;
1682;SDS011;13252;53.596;10.060;2022-09-21T08:29:03;10.77;;;6.50;;
1682;SDS011;13252;53.596;10.060;2022-09-21T08:31:32;7.23;;;5.70;;
1682;SDS011;13252;53.596;10.060;2022-09-21T08:34:11;9.37;;;5.87;;
1682;SDS011;13252;53.596;10.060;2022-09-21T08:36:39;9.60;;;5.80;;
1682;SDS011;13252;53.596;10.060;2022-09-21T08:39:10;13.10;;;5.43;;
1682;SDS011;13252;53.596;10.060;2022-09-21T08:41:51;6.43;;;4.60;;
1682;SDS011;13252;53.596;10.060;2022-09-21T08:44:31;6.10;;;5.00;;
1682;SDS011;13252;53.596;10.060;2022-09-21T08:47:02;7.67;;;5.43;;
1682;SDS011;13252;53.596;10.060;2022-09-21T08:49:36;7.20;;;5.00;;
1682;SDS011;13252;53.596;10.060;2022-09-21T08:52:05;10.47;;;5.23;;
1682;SDS011;13252;53.596;10.060;2022-09-21T08:54:34;13.03;;;3.87;;
1682;SDS011;13252;53.596;10.060;2022-09-21T08:57:06;5.30;;;4.13;;
1682;SDS011;13252;53.596;10.060;2022-09-21T08:59:35;9.63;;;3.77;;
1682;SDS011;13252;53.596;10.060;2022-09-21T09:02:12;13.90;;;3.60;;
1682;SDS011;13252;53.596;10.060;2022-09-21T09:04:56;8.50;;;3.60;;
1682;SDS011;13252;53.596;10.060;2022-09-21T09:07:33;5.30;;;2.93;;
1682;SDS011;13252;53.596;10.060;2022-09-21T09:10:17;5.03;;;2.93;;
1682;SDS011;13252;53.596;10.060;2022-09-21T09:12:55;3.80;;;2.13;;
1682;SDS011;13252;53.596;10.060;2022-09-21T09:15:51;4.70;;;2.13;;
1682;SDS011;13252;53.596;10.060;2022-09-21T09:19:03;4.33;;;2.77;;
1682;SDS011;13252;53.596;10.060;2022-09-21T09:21:41;5.10;;;2.87;;
1682;SDS011;13252;53.596;10.060;2022-09-21T09:24:11;4.10;;;2.13;;
1682;SDS011;13252;53.596;10.060;2022-09-21T09:26:43;6.13;;;2.93;;
1682;SDS011;13252;53.596;10.060;2022-09-21T09:29:17;4.93;;;2.53;;
1682;SDS011;13252;53.596;10.060;2022-09-21T09:31:48;5.03;;;3.17;;
1682;SDS011;13252;53.596;10.060;2022-09-21T09:34:20;2.73;;;1.27;;
1682;SDS011;13252;53.596;10.060;2022-09-21T09:36:53;3.20;;;1.70;;
1682;SDS011;13252;53.596;10.060;2022-09-21T09:39:25;4.53;;;2.40;;
1682;SDS011;13252;53.596;10.060;2022-09-21T09:42:00;7.07;;;2.57;;
1682;SDS011;13252;53.596;10.060;2022-09-21T09:47:33;4.70;;;2.60;;
1682;SDS011;13252;53.596;10.060;2022-09-21T09:50:08;5.17;;;2.17;;
1682;SDS011;13252;53.596;10.060;2022-09-21T09:52:39;4.93;;;2.10;;
1682;SDS011;13252;53.596;10.060;2022-09-21T09:55:14;5.33;;;2.20;;
1682;SDS011;13252;53.596;10.060;2022-09-21T09:57:46;4.00;;;2.20;;
1682;SDS011;13252;53.596;10.060;2022-09-21T10:00:15;4.00;;;2.00;;
1682;SDS011;13252;53.596;10.060;2022-09-21T10:02:45;4.33;;;2.40;;
1682;SDS011;13252;53.596;10.060;2022-09-21T10:05:19;5.00;;;2.03;;
1682;SDS011;13252;53.596;10.060;2022-09-21T10:07:50;5.07;;;2.30;;
1682;SDS011;13252;53.596;10.060;2022-09-21T10:10:22;3.27;;;1.50;;
1682;SDS011;13252;53.596;10.060;2022-09-21T10:12:53;3.37;;;1.50;;
1682;SDS011;13252;53.596;10.060;2022-09-21T10:15:22;2.90;;;1.17;;
1682;SDS011;13252;53.596;10.060;2022-09-21T10:17:56;2.57;;;1.40;;
1682;SDS011;13252;53.596;10.060;2022-09-21T10:20:24;3.50;;;1.40;;
1682;SDS011;13252;53.596;10.060;2022-09-21T10:22:53;4.20;;;1.27;;
1682;SDS011;13252;53.596;10.060;2022-09-21T10:25:22;2.73;;;1.43;;
1682;SDS011;13252;53.596;10.060;2022-09-21T10:27:49;3.10;;;1.30;;
1682;SDS011;13252;53.596;10.060;2022-09-21T10:30:30;5.07;;;1.60;;
1682;SDS011;13252;53.596;10.060;2022-09-21T10:33:00;2.43;;;1.37;;
1682;SDS011;13252;53.596;10.060;2022-09-21T10:35:27;4.80;;;1.33;;
1682;SDS011;13252;53.596;10.060;2022-09-21T10:38:10;8.50;;;2.17;;
1682;SDS011;13252;53.596;10.060;2022-09-21T10:40:47;2.60;;;1.27;;
1682;SDS011;13252;53.596;10.060;2022-09-21T10:43:21;2.53;;;1.17;;
1682;SDS011;13252;53.596;10.060;2022-09-21T10:45:52;4.13;;;1.50;;
1682;SDS011;13252;53.596;10.060;2022-09-21T10:48:22;4.70;;;1.70;;
1682;SDS011;13252;53.596;10.060;2022-09-21T10:50:51;5.30;;;1.30;;
1682;SDS011;13252;53.596;10.060;2022-09-21T10:53:23;2.57;;;1.20;;
1682;SDS011;13252;53.596;10.060;2022-09-21T10:55:56;3.60;;;1.50;;
1682;SDS011;13252;53.596;10.060;2022-09-21T11:01:42;7.77;;;1.80;;
1682;SDS011;13252;53.596;10.060;2022-09-21T11:04:11;2.97;;;1.23;;
1682;SDS011;13252;53.596;10.060;2022-09-21T11:06:43;2.47;;;1.03;;
1682;SDS011;13252;53.596;10.060;2022-09-21T11:09:17;3.63;;;0.70;;
1682;SDS011;13252;53.596;10.060;2022-09-21T11:11:48;2.60;;;0.90;;
1682;SDS011;13252;53.596;10.060;2022-09-21T11:14:25;2.57;;;0.90;;
1682;SDS011;13252;53.596;10.060;2022-09-21T11:17:02;6.00;;;1.00;;
1682;SDS011;13252;53.596;10.060;2022-09-21T11:19:35;3.40;;;0.90;;
1682;SDS011;13252;53.596;10.060;2022-09-21T11:22:06;3.03;;;0.90;;
1682;SDS011;13252;53.596;10.060;2022-09-21T11:24:45;1.90;;;0.70;;
1682;SDS011;13252;53.596;10.060;2022-09-21T11:27:19;1.70;;;0.57;;
1682;SDS011;13252;53.596;10.060;2022-09-21T11:29:59;2.00;;;0.90;;
1682;SDS011;13252;53.596;10.060;2022-09-21T11:33:04;3.37;;;1.10;;
1682;SDS011;13252;53.596;10.060;2022-09-21T11:35:38;2.73;;;0.80;;
1682;SDS011;13252;53.596;10.060;2022-09-21T11:38:16;2.90;;;1.20;;
1682;SDS011;13252;53.596;10.060;2022-09-21T11:40:57;4.60;;;1.00;;
1682;SDS011;13252;53.596;10.060;2022-09-21T11:43:36;2.93;;;0.73;;
1682;SDS011;13252;53.596;10.060;2022-09-21T11:46:13;4.90;;;0.90;;
1682;SDS011;13252;53.596;10.060;2022-09-21T11:48:51;2.27;;;0.70;;
1682;SDS011;13252;53.596;10.060;2022-09-21T11:51:32;4.33;;;0.90;;
1682;SDS011;13252;53.596;10.060;2022-09-21T11:54:17;7.67;;;1.07;;
1682;SDS011;13252;53.596;10.060;2022-09-21T11:57:03;2.20;;;0.90;;
1682;SDS011;13252;53.596;10.060;2022-09-21T11:59:42;2.20;;;0.73;;
1682;SDS011;13252;53.596;10.060;2022-09-21T12:02:21;2.67;;;1.00;;
1682;SDS011;13252;53.596;10.060;2022-09-21T12:04:56;2.90;;;0.90;;
1682;SDS011;13252;53.596;10.060;2022-09-21T12:07:32;4.50;;;1.20;;
1682;SDS011;13252;53.596;10.060;2022-09-21T12:10:29;4.13;;;0.90;;
1682;SDS011;13252;53.596;10.060;2022-09-21T12:13:07;5.47;;;1.50;;
1682;SDS011;13252;53.596;10.060;2022-09-21T12:15:41;3.23;;;0.87;;
1682;SDS011;13252;53.596;10.060;2022-09-21T12:18:19;1.93;;;0.70;;
1682;SDS011;13252;53.596;10.060;2022-09-21T12:20:56;3.23;;;0.73;;
1682;SDS011;13252;53.596;10.060;2022-09-21T12:23:31;2.00;;;0.60;;
1682;SDS011;13252;53.596;10.060;2022-09-21T12:26:05;3.60;;;0.90;;
1682;SDS011;13252;53.596;10.060;2022-09-21T12:28:35;2.17;;;0.70;;
1682;SDS011;13252;53.596;10.060;2022-09-21T12:31:08;3.07;;;0.80;;
1682;SDS011;13252;53.596;10.060;2022-09-21T12:33:42;4.57;;;1.57;;
1682;SDS011;13252;53.596;10.060;2022-09-21T12:36:12;8.70;;;1.00;;
1682;SDS011;13252;53.596;10.060;2022-09-21T12:38:45;2.27;;;1.03;;
1682;SDS011;13252;53.596;10.060;2022-09-21T12:41:17;3.37;;;1.30;;
1682;SDS011;13252;53.596;10.060;2022-09-21T12:43:52;3.57;;;1.27;;
1682;SDS011;13252;53.596;10.060;2022-09-21T12:46:28;2.53;;;1.07;;
1682;SDS011;13252;53.596;10.060;2022-09-21T12:48:58;2.63;;;0.70;;
1682;SDS011;13252;53.596;10.060;2022-09-21T12:51:27;2.13;;;0.83;;
1682;SDS011;13252;53.596;10.060;2022-09-21T12:53:59;2.00;;;0.70;;
1682;SDS011;13252;53.596;10.060;2022-09-21T12:56:31;6.67;;;1.10;;
1682;SDS011;13252;53.596;10.060;2022-09-21T12:59:05;4.43;;;0.97;;
1682;SDS011;13252;53.596;10.060;2022-09-21T13:01:41;4.50;;;1.40;;
1682;SDS011;13252;53.596;10.060;2022-09-21T13:04:15;2.30;;;0.80;;
1682;SDS011;13252;53.596;10.060;2022-09-21T13:06:59;10.83;;;1.03;;
1682;SDS011;13252;53.596;10.060;2022-09-21T13:09:37;3.37;;;0.80;;
1682;SDS011;13252;53.596;10.060;2022-09-21T13:12:06;2.77;;;0.80;;
1682;SDS011;13252;53.596;10.060;2022-09-21T13:14:48;2.00;;;0.60;;
1682;SDS011;13252;53.596;10.060;2022-09-21T13:17:18;2.93;;;1.00;;
1682;SDS011;13252;53.596;10.060;2022-09-21T13:19:55;2.73;;;1.10;;
1682;SDS011;13252;53.596;10.060;2022-09-21T13:22:24;2.83;;;0.93;;
1682;SDS011;13252;53.596;10.060;2022-09-21T13:24:57;5.27;;;1.23;;
1682;SDS011;13252;53.596;10.060;2022-09-21T13:30:35;2.53;;;0.87;;
1682;SDS011;13252;53.596;10.060;2022-09-21T13:33:17;2.90;;;1.00;;
1682;SDS011;13252;53.596;10.060;2022-09-21T13:36:00;3.13;;;1.40;;
1682;SDS011;13252;53.596;10.060;2022-09-21T13:38:30;2.23;;;0.93;;
1682;SDS011;13252;53.596;10.060;2022-09-21T13:41:03;2.57;;;0.93;;
1682;SDS011;13252;53.596;10.060;2022-09-21T13:44:02;3.00;;;1.07;;
1682;SDS011;13252;53.596;10.060;2022-09-21T13:49:26;1.90;;;0.80;;
1682;SDS011;13252;53.596;10.060;2022-09-21T13:51:58;3.90;;;1.00;;
1682;SDS011;13252;53.596;10.060;2022-09-21T13:54:28;3.07;;;1.33;;
1682;SDS011;13252;53.596;10.060;2022-09-21T13:57:00;2.53;;;0.87;;
1682;SDS011;13252;53.596;10.060;2022-09-21T13:59:34;1.90;;;0.70;;
1682;SDS011;13252;53.596;10.060;2022-09-21T14:02:08;2.30;;;0.97;;
1682;SDS011;13252;53.596;10.060;2022-09-21T14:04:48;3.53;;;0.80;;
1682;SDS011;13252;53.596;10.060;2022-09-21T14:07:16;2.73;;;0.90;;
1682;SDS011;13252;53.596;10.060;2022-09-21T14:09:50;2.57;;;0.90;;
1682;SDS011;13252;53.596;10.060;2022-09-21T14:12:21;5.93;;;1.13;;
1682;SDS011;13252;53.596;10.060;2022-09-21T14:17:39;3.23;;;0.93;;
1682;SDS011;13252;53.596;10.060;2022-09-21T14:23:25;2.73;;;0.97;;
1682;SDS011;13252;53.596;10.060;2022-09-21T14:25:54;3.10;;;0.87;;
1682;SDS011;13252;53.596;10.060;2022-09-21T14:28:37;3.07;;;1.87;;
1682;SDS011;13252;53.596;10.060;2022-09-21T14:31:13;3.60;;;1.50;;
1682;SDS011;13252;53.596;10.060;2022-09-21T14:33:45;2.60;;;1.40;;
1682;SDS011;13252;53.596;10.060;2022-09-21T14:36:17;3.67;;;1.10;;
1682;SDS011;13252;53.596;10.060;2022-09-21T14:38:48;2.57;;;0.77;;
1682;SDS011;13252;53.596;10.060;2022-09-21T14:41:20;4.30;;;1.23;;
1682;SDS011;13252;53.596;10.060;2022-09-21T14:43:49;3.90;;;1.10;;
1682;SDS011;13252;53.596;10.060;2022-09-21T14:49:15;3.30;;;1.20;;
1682;SDS011;13252;53.596;10.060;2022-09-21T14:51:52;2.53;;;1.10;;
1682;SDS011;13252;53.596;10.060;2022-09-21T14:54:47;2.53;;;1.20;;
1682;SDS011;13252;53.596;10.060;2022-09-21T14:57:31;5.67;;;1.37;;
1682;SDS011;13252;53.596;10.060;2022-09-21T15:00:12;4.77;;;0.97;;
1682;SDS011;13252;53.596;10.060;2022-09-21T15:02:47;2.70;;;1.33;;
1682;SDS011;13252;53.596;10.060;2022-09-21T15:05:25;2.40;;;1.00;;
1682;SDS011;13252;53.596;10.060;2022-09-21T15:08:04;2.93;;;1.40;;
1682;SDS011;13252;53.596;10.060;2022-09-21T15:10:57;2.30;;;0.87;;
1682;SDS011;13252;53.596;10.060;2022-09-21T15:13:50;3.07;;;1.27;;
1682;SDS011;13252;53.596;10.060;2022-09-21T15:16:29;2.67;;;1.00;;
1682;SDS011;13252;53.596;10.060;2022-09-21T15:19:10;3.10;;;0.90;;
1682;SDS011;13252;53.596;10.060;2022-09-21T15:21:43;5.90;;;1.63;;
1682;SDS011;13252;53.596;10.060;2022-09-21T15:24:19;2.87;;;1.10;;
1682;SDS011;13252;53.596;10.060;2022-09-21T15:26:52;3.13;;;1.43;;
1682;SDS011;13252;53.596;10.060;2022-09-21T15:29:24;2.90;;;1.10;;
1682;SDS011;13252;53.596;10.060;2022-09-21T15:31:53;2.73;;;1.23;;
1682;SDS011;13252;53.596;10.060;2022-09-21T15:34:21;5.80;;;1.30;;
1682;SDS011;13252;53.596;10.060;2022-09-21T15:36:51;4.23;;;1.47;;